Hauptseite
METAR-TAF:

METAR-TAF

Flughäfen :

Flughafen La Tontouta

Nouméa / La Tontouta, Neukaledonien

Breite: 22-01S, Länge: 166-13E, Höhe: 16 m

Beobachtung

Neuester Wetterbericht von vor 12 Minuten, um 07:30 UTC
Windstille
Temperatur 20°C
Luftfeuchtigkeit 60%
Luftdruck 1015 hPa
Sichtweite 10 km oder mehr
Durchbrochene Bewölkung in der Höhe von 5800 ft
Durchbrochene Bewölkung in der Höhe von 7000 ft
Geschlossene Wolkendecke in der Höhe von 8200 ft

METAR: NWWW 170730Z AUTO 00000KT 9999 BKN058 BKN070 OVC082 20/12 Q1015 NOSIG

Zeit: 18:42 (07:42 UTC)

Prognose

Neuester Wetterbericht von vor 2 Stunden und 42 Minuten, um 05:00 UTC
Gültige Prognose vom 17 um 06 UTC bis 18 um 06 UTC
Wind 8 kt aus Süd
Sichtweite 10 km oder mehr
Leicht bewölkt in der Höhe von 5000 ft

TAF: NWWW 170500Z 1706/1806 18008KT 9999 FEW050

Wetterbeobachtungen und Prognosen von mehr als 4000 Flughäfen (METAR und TAF Bericht).

Die verfügbaren Stationen werden durch gelbe und rote Markierungen auf der Karte dargestellt.

Führen Sie die Maus auf sie, um den Namen der Station zu sehen.

Darauf klicken, um die Beobachtung von Wetterbeobachtungen und Prognosen zu sehen.

Um die Karte zu ändern : klicken Sie auf den grünen Tasten mit einem schwarzen Kreuz Zum Vergrößern, auf den grünen Button mit einem Gedankenstrich zu verkleinern, oder auf die grünen Pfeile für benachbarte Karten.


METAR-TAF: